Latest Coastal Weather Observations for East Sale

IDV60701

Issued at 5:31 pm EDT Thursday 29 January 2015 (issued every 10 minutes, with the page automatically refreshed every 10 minutes)

About coastal observations | Map of coastal stations | Coastal observations for VIC | Marine services | Other Formats
Station Details ID: 085072 Name: EAST SALE AIRPORT Lat: -38.12 Lon: 147.13 Height: 4.6 m
Data from the previous 72 hours. | See also: Recent months at East Sale
Date/Time
EDT
Temp

°C
Wind Pressure Rain
since 9am
mm
Weather Cloud Vis
km
Sea
Height
m
Swell
Dir
 
Speed
knots
Gust
knots
hPa Trend Height
m
Period
s
Dir
29/05:30pm 17.8 SE 14 19 1018.3 - 5.0 - Partly cloudy 10 - - - -
29/05:01pm 17.3 SE 19 28 1018.4 - 5.0 - Partly cloudy 10 - - - -
29/05:00pm 17.1 SE 20 28 1018.4 - 5.0 - Partly cloudy 10 - - - -
29/04:51pm 18.1 SSE 15 27 1018.4 - 5.0 - Partly cloudy 10 - - - -
29/04:30pm 18.7 SE 17 24 1018.4 - 5.0 - Partly cloudy 10 - - - -
29/04:00pm 18.2 SSE 16 22 1018.5 - 5.0 - Mostly cloudy 10 - - - -
29/03:30pm 17.1 S 8 19 1018.6 - 5.0 - Mostly cloudy 10 - - - -
29/03:18pm 16.0 S 8 15 1018.7 - 5.0 Showers Mostly clear 10 - - - -
29/03:04pm 15.0 SSE 17 27 1018.9 - 3.8 Showers Partly cloudy 4 - - - -
29/03:00pm 15.2 SE 19 27 1018.8 R 2.4 Rain Cloudy 6 - - - -
29/02:58pm 15.2 SE 19 27 1018.8 - 2.0 Showers Mostly cloudy 4 - - - -
29/02:30pm 20.4 SSE 14 20 1018.7 - 0.0 - Partly cloudy 10 - - - -
29/02:00pm 19.5 S 14 19 1018.8 - 0.0 - Partly cloudy 10 - - - -
29/01:01pm 20.0 SSE 15 25 1019.3 - 0.0 - Partly cloudy 10 - - - -
29/01:00pm 19.7 SSE 14 25 1019.3 - 0.0 - Partly cloudy 10 - - - -
29/12:30pm 19.5 SSE 13 19 1019.5 - 0.0 - Partly cloudy 10 - - - -
29/12:00pm 19.5 SE 15 20 1019.5 F 0.0 - Partly cloudy 10 - - - -
29/11:30am 18.9 SSE 14 20 1019.8 - 0.0 - Partly cloudy 10 - - - -
29/11:00am 18.6 SSE 13 19 1019.8 - 0.0 - Partly cloudy 10 - - - -
29/10:30am 17.3 SSE 14 21 1019.9 - 0.0 - Partly cloudy 10 - - - -
29/10:00am 16.6 SSE 15 22 1020.0 - 0.0 - Partly cloudy 10 - - - -
29/09:00am 16.7 SSE 11 16 1020.2 F 0.8 - Partly cloudy 10 - - - -
29/08:30am 15.9 SW 5 7 1020.1 - 0.8 - Mostly clear 10 - - - -
29/08:00am 15.1 SW 6 8 1020.0 - 0.8 - Mostly clear 10 - - - -
29/07:30am 14.3 SSW 5 7 1019.8 - 0.8 - Mostly clear 10 - - - -
29/07:00am 13.6 SSE 6 9 1019.5 - 0.8 - Mostly clear 10 - - - -
29/06:30am 13.4 SW 4 5 1019.5 - 0.6 - Partly cloudy 10 - - - -
29/05:30am 13.2 WNW 4 6 1019.1 - 0.4 - - 10 - - - -
29/05:00am 13.5 SSE 4 6 1019.0 - 0.4 - - 10 - - - -
29/04:30am 13.8 SSE 5 8 1019.0 - 0.4 - - 10 - - - -
29/04:00am 13.8 SSE 6 9 1019.0 - 0.4 - Partly cloudy 10 - - - -
29/03:54am 14.0 SE 5 7 1019.1 - 0.4 - Partly cloudy 10 - - - -
29/03:32am 14.3 SSE 8 17 1019.4 - 0.4 - Partly cloudy 5 - - - -
29/03:30am 14.2 S 7 12 1019.4 - 0.4 - Partly cloudy 9 - - - -
29/03:00am 13.4 SSE 6 8 1019.5 F 0.0 - Mostly clear 10 - - - -
29/02:30am 13.9 SSE 5 6 1019.7 - 0.0 - - 10 - - - -
29/02:00am 13.2 SE 5 6 1020.0 - 0.0 - Partly cloudy 10 - - - -
29/01:30am 13.4 SE 4 6 1020.2 - 0.0 - - 10 - - - -
29/01:00am 13.5 SE 5 6 1020.4 - 0.0 - Partly cloudy 10 - - - -
29/12:30am 13.0 SE 4 5 1020.7 - 0.0 - Partly cloudy 10 - - - -
29/12:00am 13.5 SE 5 6 1020.8 F 0.0 - Mostly clear 23 - - - -
 
Date/Time
EDT
Temp

°C
Wind Pressure Rain
since 9am
mm
Weather Cloud Vis
km
Sea
Height
m
Swell
Dir
 
Speed
knots
Gust
knots
hPa Trend Height
m
Period
s
Dir
28/11:30pm 13.8 SE 7 8 1021.0 - 0.0 - Partly cloudy 10 - - - -
28/11:00pm 14.5 SE 7 9 1021.1 - 0.0 - Partly cloudy 10 - - - -
28/10:30pm 14.8 SE 7 9 1021.2 - 0.0 - Partly cloudy 10 - - - -
28/10:00pm 15.0 SE 7 11 1021.3 - 0.0 - - 10 - - - -
28/09:30pm 14.9 SE 7 8 1021.1 - 0.0 - Partly cloudy 10 - - - -
28/09:00pm 15.2 SE 7 8 1020.9 R 0.0 - - 10 - - - -
28/08:30pm 16.0 SE 10 13 1020.9 - 0.0 - - 10 - - - -
28/08:00pm 16.7 SE 11 15 1020.7 - 0.0 - - 10 - - - -
28/07:30pm 17.1 SE 13 18 1020.6 - 0.0 - Partly cloudy 10 - - - -
28/07:00pm 17.5 SE 14 21 1020.5 - 0.0 - Partly cloudy 10 - - - -
28/06:30pm 17.9 SE 14 18 1020.1 - 0.0 - Partly cloudy 10 - - - -
28/06:00pm 19.5 SE 15 19 1019.8 F 0.0 - Partly cloudy 10 - - - -
28/05:30pm 20.0 ESE 14 18 1019.8 - 0.0 - Partly cloudy 10 - - - -
28/05:00pm 20.6 ESE 15 21 1019.8 - 0.0 - Partly cloudy 10 - - - -
28/04:30pm 21.0 ESE 15 22 1019.6 - 0.0 - Partly cloudy 10 - - - -
28/04:00pm 20.6 SE 17 24 1019.8 - 0.0 - Partly cloudy 10 - - - -
28/03:30pm 20.8 SE 17 25 1019.9 - 0.0 - Partly cloudy 10 - - - -
28/03:00pm 19.2 SE 17 25 1019.9 R 0.0 - Partly cloudy 10 - - - -
28/02:33pm 20.6 SE 18 28 1019.8 - 0.0 - Partly cloudy 10 - - - -
28/02:30pm 21.0 SE 19 28 1019.7 - 0.0 - Partly cloudy 10 - - - -
28/02:00pm 21.5 SE 17 25 1019.8 - 0.0 - Partly cloudy 10 - - - -
28/01:30pm 20.0 ESE 19 25 1019.8 - 0.0 - Partly cloudy 10 - - - -
28/01:00pm 20.6 SE 18 23 1019.7 - 0.0 - Partly cloudy 10 - - - -
28/12:30pm 22.4 SE 17 22 1019.7 - 0.0 - Partly cloudy 10 - - - -
28/12:00pm 20.7 ESE 18 24 1019.5 R 0.0 - Mostly cloudy 10 - - - -
28/11:30am 20.4 ESE 17 24 1019.6 - 0.0 - Partly cloudy 10 - - - -
28/11:00am 19.7 SE 15 21 1019.6 - 0.0 - Partly cloudy 10 - - - -
28/10:30am 19.2 SE 14 19 1019.7 - 0.0 Showers Partly cloudy 10 - - - -
28/10:00am 18.8 SE 12 17 1019.6 - 0.0 - Mostly cloudy 10 - - - -
28/09:30am 18.1 ESE 11 15 1019.5 - 0.0 - Mostly clear 10 - - - -
28/09:00am 18.3 ESE 10 14 1019.5 R 0.0 - Mostly clear 10 - - - -
28/08:30am 17.6 SE 10 13 1019.3 - 0.0 - Mostly clear 10 - - - -
28/08:00am 15.5 W 3 4 1019.2 - 0.0 - Mostly clear 10 - - - -
28/07:30am 14.8 SW 4 5 1018.9 - 0.0 - Partly cloudy 10 - - - -
28/07:00am 14.4 WSW 3 4 1018.5 - 0.0 - Mostly clear 10 - - - -
28/06:30am 14.5 SSW 4 5 1018.3 - 0.0 - - 10 - - - -
28/06:00am 14.5 S 4 6 1018.1 R 0.0 - - 10 - - - -
28/05:30am 14.4 S 5 7 1017.8 - 0.0 - - 10 - - - -
28/05:00am 14.6 SSW 3 4 1017.5 - 0.0 - - 10 - - - -
28/04:30am 14.6 S 2 4 1017.6 - 0.0 - - 10 - - - -
28/04:00am 14.5 S 4 5 1017.5 - 0.0 - Cloudy 10 - - - -
28/03:30am 14.7 S 7 8 1017.5 - 0.0 - Cloudy 10 - - - -
28/03:00am 14.7 S 4 5 1017.7 S 0.0 - Cloudy 10 - - - -
28/02:30am 14.9 SSW 4 6 1017.9 - 0.0 - Cloudy 10 - - - -
28/02:00am 15.0 S 5 6 1018.0 - 0.0 - Cloudy 10 - - - -
28/01:30am 15.0 S 5 7 1018.1 - 0.0 - Cloudy 10 - - - -
28/01:00am 15.1 S 6 7 1018.2 - 0.0 - Partly cloudy 10 - - - -
28/12:30am 15.2 SSW 4 6 1018.3 - 0.0 - Partly cloudy 10 - - - -
28/12:00am 15.3 S 4 5 1018.5 R 0.0 - Cloudy 10 - - - -
 
Date/Time
EDT
Temp

°C
Wind Pressure Rain
since 9am
mm
Weather Cloud Vis
km
Sea
Height
m
Swell
Dir
 
Speed
knots
Gust
knots
hPa Trend Height
m
Period
s
Dir
27/11:30pm 15.4 S 4 6 1018.5 - 0.0 - Partly cloudy 10 - - - -
27/11:00pm 15.6 SSE 4 6 1018.5 - 0.0 - Cloudy 10 - - - -
27/10:30pm 15.6 SSE 4 6 1018.5 - 0.0 - Partly cloudy 10 - - - -
27/10:00pm 15.9 SSE 4 6 1018.4 - 0.0 - Cloudy 10 - - - -
27/09:30pm 15.9 SE 5 6 1018.3 - 0.0 - Cloudy 10 - - - -
27/09:00pm 16.1 ESE 5 6 1018.1 R 0.0 - Cloudy 10 - - - -
27/08:30pm 16.0 ESE 5 7 1017.9 - 0.0 - Cloudy 10 - - - -
27/08:00pm 16.1 ESE 8 10 1017.6 - 0.0 - Cloudy 10 - - - -
27/07:30pm 16.5 ESE 10 13 1017.4 - 0.0 - Cloudy 10 - - - -
27/07:00pm 16.5 SE 9 12 1017.3 - 0.0 - Cloudy 10 - - - -
27/06:30pm 16.6 SE 9 11 1017.1 - 0.0 - Cloudy 10 - - - -
27/06:00pm 16.9 SE 9 13 1017.0 F 0.0 - Cloudy 10 - - - -
27/05:30pm 17.2 SE 8 11 1016.9 - 0.0 - Cloudy 10 - - - -
27/05:00pm 17.3 SSE 9 13 1017.0 - 0.0 - Cloudy 10 - - - -
27/04:30pm 17.4 SSE 9 14 1017.0 - 0.0 - Cloudy 10 - - - -
27/04:00pm 17.6 SSE 8 12 1017.1 - 0.0 - Cloudy 10 - - - -
27/03:30pm 18.0 SSE 7 11 1017.0 - 0.0 - Cloudy 10 - - - -
27/03:00pm 18.6 SSE 8 11 1016.9 R 0.0 - Cloudy 10 - - - -
27/02:30pm 17.8 S 6 11 1017.2 - 0.0 - Cloudy 10 - - - -
27/02:00pm 17.6 SSE 7 10 1017.3 - 0.0 - Cloudy 10 - - - -
27/01:30pm 17.5 SE 8 10 1017.4 - 0.0 - Cloudy 10 - - - -
27/01:00pm 17.4 SE 8 13 1017.5 - 0.0 - Cloudy 10 - - - -
27/12:30pm 17.6 SE 8 11 1017.6 - 0.0 - Cloudy 10 - - - -
27/12:00pm 17.7 SE 7 10 1017.7 R 0.0 - Cloudy 10 - - - -
27/11:30am 17.4 SSE 8 10 1017.6 - 0.0 - Cloudy 10 - - - -
27/11:00am 17.3 SE 8 12 1017.6 - 0.0 - Cloudy 10 - - - -
27/10:30am 17.2 SSE 8 11 1017.5 - 0.0 - Cloudy 10 - - - -
27/10:00am 16.7 SSE 8 11 1017.6 - 0.0 - Cloudy 10 - - - -
27/09:30am 16.4 S 7 9 1017.6 - 0.0 - Cloudy 10 - - - -
27/09:00am 16.0 S 8 10 1017.6 F 0.0 - Cloudy 10 - - - -
27/08:30am 15.1 S 7 9 1017.5 - 0.0 - Cloudy 10 - - - -
27/08:00am 14.6 S 7 9 1017.2 - 0.0 - Cloudy 10 - - - -
27/07:30am 14.3 S 6 8 1017.0 - 0.0 - Cloudy 10 - - - -
27/07:00am 14.0 S 7 9 1016.7 - 0.0 - Cloudy 10 - - - -
27/06:30am 13.7 S 7 9 1016.6 - 0.0 - - 10 - - - -
27/06:00am 13.4 S 5 8 1016.5 F 0.0 - - 10 - - - -
27/05:30am 13.1 S 5 6 1016.4 - 0.0 - - 10 - - - -
27/05:00am 12.6 SSE 4 5 1016.3 - 0.0 - - 10 - - - -
27/04:30am 13.3 S 5 7 1016.4 - 0.0 - - 10 - - - -
27/04:00am 13.8 S 5 7 1016.6 - 0.0 - - 10 - - - -
27/03:30am 14.0 S 6 7 1016.8 - 0.0 - - 10 - - - -
27/03:00am 13.9 S 6 7 1017.0 F 0.0 - - 10 - - - -
27/02:30am 14.0 S 6 7 1017.2 - 0.0 - - 10 - - - -
27/02:00am 13.8 S 5 6 1017.5 - 0.0 - - 10 - - - -
27/01:30am 13.8 SSE 5 6 1017.7 - 0.0 - - 10 - - - -
27/01:00am 14.2 SSE 4 7 1018.0 - 0.0 - - 10 - - - -
27/12:30am 14.4 S 5 6 1018.1 - 0.0 - - 10 - - - -
27/12:00am 14.5 SE 5 6 1018.2 R 0.0 - - 10 - - - -
 
Date/Time
EDT
Temp

°C
Wind Pressure Rain
since 9am
mm
Weather Cloud Vis
km
Sea
Height
m
Swell
Dir
 
Speed
knots
Gust
knots
hPa Trend Height
m
Period
s
Dir
26/11:30pm 14.6 SE 4 5 1018.3 - 0.0 - - 10 - - - -
26/11:00pm 15.1 SE 5 6 1018.5 - 0.0 - - 10 - - - -
26/10:30pm 15.3 SE 5 7 1018.6 - 0.0 - - 10 - - - -
26/10:00pm 15.5 SE 5 6 1018.5 - 0.0 - - 10 - - - -
26/09:30pm 15.5 SE 6 7 1018.4 - 0.0 - - 10 - - - -
26/09:00pm 15.7 SE 7 9 1018.1 R 0.0 - - 10 - - - -
26/08:30pm 15.9 SE 7 10 1017.9 - 0.0 - - 10 - - - -
26/08:00pm 16.1 SE 10 12 1017.6 - 0.0 - - 10 - - - -
26/07:30pm 16.6 SSE 11 15 1017.2 - 0.0 - - 10 - - - -
26/07:00pm 17.0 SE 10 14 1016.7 - 0.0 - - 10 - - - -
26/06:30pm 17.8 SE 11 14 1016.4 - 0.0 - - 10 - - - -
26/06:00pm 17.3 SE 11 16 1016.4 F 0.0 - - 10 - - - -

Other Formats:

Comma delimited format used in spreadsheet applications
http://www.bom.gov.au/fwo/IDV60701/IDV60701.94907.axf

JavaScript Object Notation format (JSON) in row-major order
http://www.bom.gov.au/fwo/IDV60701/IDV60701.94907.json